sensor_id;sensor_type;location;lat;lon;timestamp;P1;durP1;ratioP1;P2;durP2;ratioP2
16352;SDS011;8286;51.274;9.542;2022-11-20T00:00:14;14.73;;;7.03;;
16352;SDS011;8286;51.274;9.542;2022-11-20T00:02:41;19.50;;;8.50;;
16352;SDS011;8286;51.274;9.542;2022-11-20T00:05:08;17.40;;;7.87;;
16352;SDS011;8286;51.274;9.542;2022-11-20T00:07:35;12.90;;;8.67;;
16352;SDS011;8286;51.274;9.542;2022-11-20T00:10:01;17.27;;;8.40;;
16352;SDS011;8286;51.274;9.542;2022-11-20T00:12:29;23.13;;;10.70;;
16352;SDS011;8286;51.274;9.542;2022-11-20T00:14:56;30.37;;;12.80;;
16352;SDS011;8286;51.274;9.542;2022-11-20T00:17:23;25.83;;;11.67;;
16352;SDS011;8286;51.274;9.542;2022-11-20T00:19:49;25.77;;;10.13;;
16352;SDS011;8286;51.274;9.542;2022-11-20T00:22:16;19.53;;;9.53;;
16352;SDS011;8286;51.274;9.542;2022-11-20T00:24:42;16.07;;;8.20;;
16352;SDS011;8286;51.274;9.542;2022-11-20T00:27:09;22.20;;;9.67;;
16352;SDS011;8286;51.274;9.542;2022-11-20T00:29:37;21.77;;;10.37;;
16352;SDS011;8286;51.274;9.542;2022-11-20T00:32:04;16.47;;;8.63;;
16352;SDS011;8286;51.274;9.542;2022-11-20T00:34:30;17.47;;;8.43;;
16352;SDS011;8286;51.274;9.542;2022-11-20T00:36:57;18.53;;;7.90;;
16352;SDS011;8286;51.274;9.542;2022-11-20T00:39:23;21.17;;;9.63;;
16352;SDS011;8286;51.274;9.542;2022-11-20T00:41:50;14.40;;;8.27;;
16352;SDS011;8286;51.274;9.542;2022-11-20T00:44:17;12.73;;;7.23;;
16352;SDS011;8286;51.274;9.542;2022-11-20T00:46:45;13.83;;;7.03;;
16352;SDS011;8286;51.274;9.542;2022-11-20T00:49:11;8.53;;;5.40;;
16352;SDS011;8286;51.274;9.542;2022-11-20T00:51:38;11.90;;;6.10;;
16352;SDS011;8286;51.274;9.542;2022-11-20T00:54:04;11.07;;;5.60;;
16352;SDS011;8286;51.274;9.542;2022-11-20T00:56:31;15.93;;;6.33;;
16352;SDS011;8286;51.274;9.542;2022-11-20T00:58:59;12.80;;;7.30;;
16352;SDS011;8286;51.274;9.542;2022-11-20T01:01:26;10.77;;;7.03;;
16352;SDS011;8286;51.274;9.542;2022-11-20T01:03:56;15.90;;;8.20;;
16352;SDS011;8286;51.274;9.542;2022-11-20T01:06:24;17.17;;;7.53;;
16352;SDS011;8286;51.274;9.542;2022-11-20T01:08:52;13.80;;;6.37;;
16352;SDS011;8286;51.274;9.542;2022-11-20T01:11:21;12.20;;;6.63;;
16352;SDS011;8286;51.274;9.542;2022-11-20T01:13:49;19.37;;;7.60;;
16352;SDS011;8286;51.274;9.542;2022-11-20T01:16:17;14.50;;;7.20;;
16352;SDS011;8286;51.274;9.542;2022-11-20T01:18:45;8.47;;;6.03;;
16352;SDS011;8286;51.274;9.542;2022-11-20T01:21:15;16.23;;;7.33;;
16352;SDS011;8286;51.274;9.542;2022-11-20T01:23:43;11.50;;;5.93;;
16352;SDS011;8286;51.274;9.542;2022-11-20T01:26:10;9.63;;;5.20;;
16352;SDS011;8286;51.274;9.542;2022-11-20T01:28:39;8.73;;;4.93;;
16352;SDS011;8286;51.274;9.542;2022-11-20T01:31:12;13.53;;;6.63;;
16352;SDS011;8286;51.274;9.542;2022-11-20T01:33:40;7.47;;;5.40;;
16352;SDS011;8286;51.274;9.542;2022-11-20T01:36:07;8.07;;;5.30;;
16352;SDS011;8286;51.274;9.542;2022-11-20T01:38:36;9.43;;;6.30;;
16352;SDS011;8286;51.274;9.542;2022-11-20T01:41:02;10.40;;;5.23;;
16352;SDS011;8286;51.274;9.542;2022-11-20T01:43:30;9.27;;;5.23;;
16352;SDS011;8286;51.274;9.542;2022-11-20T01:45:58;11.07;;;5.57;;
16352;SDS011;8286;51.274;9.542;2022-11-20T01:48:32;14.60;;;6.23;;
16352;SDS011;8286;51.274;9.542;2022-11-20T01:51:00;14.40;;;6.13;;
16352;SDS011;8286;51.274;9.542;2022-11-20T01:53:30;9.03;;;6.23;;
16352;SDS011;8286;51.274;9.542;2022-11-20T01:56:00;12.37;;;7.50;;
16352;SDS011;8286;51.274;9.542;2022-11-20T01:58:28;11.80;;;6.83;;
16352;SDS011;8286;51.274;9.542;2022-11-20T02:00:57;18.70;;;9.37;;
16352;SDS011;8286;51.274;9.542;2022-11-20T02:03:24;18.47;;;10.33;;
16352;SDS011;8286;51.274;9.542;2022-11-20T02:05:53;23.93;;;12.10;;
16352;SDS011;8286;51.274;9.542;2022-11-20T02:08:23;18.57;;;10.00;;
16352;SDS011;8286;51.274;9.542;2022-11-20T02:10:50;16.87;;;8.73;;
16352;SDS011;8286;51.274;9.542;2022-11-20T02:13:18;15.07;;;6.47;;
16352;SDS011;8286;51.274;9.542;2022-11-20T02:16:08;12.37;;;6.37;;
16352;SDS011;8286;51.274;9.542;2022-11-20T02:18:36;10.90;;;5.00;;
16352;SDS011;8286;51.274;9.542;2022-11-20T02:21:05;7.10;;;5.20;;
16352;SDS011;8286;51.274;9.542;2022-11-20T02:23:36;15.47;;;5.77;;
16352;SDS011;8286;51.274;9.542;2022-11-20T02:26:06;9.03;;;5.30;;
16352;SDS011;8286;51.274;9.542;2022-11-20T02:28:35;12.93;;;6.37;;
16352;SDS011;8286;51.274;9.542;2022-11-20T02:31:02;11.10;;;5.50;;
16352;SDS011;8286;51.274;9.542;2022-11-20T02:33:29;11.70;;;5.97;;
16352;SDS011;8286;51.274;9.542;2022-11-20T02:35:56;9.17;;;5.80;;
16352;SDS011;8286;51.274;9.542;2022-11-20T02:38:22;11.40;;;5.93;;
16352;SDS011;8286;51.274;9.542;2022-11-20T02:40:49;9.23;;;5.50;;
16352;SDS011;8286;51.274;9.542;2022-11-20T02:43:17;11.10;;;5.50;;
16352;SDS011;8286;51.274;9.542;2022-11-20T02:45:43;15.83;;;6.60;;
16352;SDS011;8286;51.274;9.542;2022-11-20T02:48:10;14.37;;;7.80;;
16352;SDS011;8286;51.274;9.542;2022-11-20T02:50:37;16.80;;;7.90;;
16352;SDS011;8286;51.274;9.542;2022-11-20T02:53:05;13.10;;;6.93;;
16352;SDS011;8286;51.274;9.542;2022-11-20T02:55:32;13.00;;;7.00;;
16352;SDS011;8286;51.274;9.542;2022-11-20T02:57:59;15.40;;;6.57;;
16352;SDS011;8286;51.274;9.542;2022-11-20T03:00:27;16.00;;;6.23;;
16352;SDS011;8286;51.274;9.542;2022-11-20T03:02:53;13.23;;;7.27;;
16352;SDS011;8286;51.274;9.542;2022-11-20T03:05:20;9.87;;;6.00;;
16352;SDS011;8286;51.274;9.542;2022-11-20T03:07:46;10.20;;;6.07;;
16352;SDS011;8286;51.274;9.542;2022-11-20T03:10:13;10.80;;;5.57;;
16352;SDS011;8286;51.274;9.542;2022-11-20T03:12:40;9.03;;;5.57;;
16352;SDS011;8286;51.274;9.542;2022-11-20T03:15:07;9.63;;;5.80;;
16352;SDS011;8286;51.274;9.542;2022-11-20T03:17:36;10.77;;;6.00;;
16352;SDS011;8286;51.274;9.542;2022-11-20T03:20:02;14.03;;;6.17;;
16352;SDS011;8286;51.274;9.542;2022-11-20T03:22:30;10.20;;;6.20;;
16352;SDS011;8286;51.274;9.542;2022-11-20T03:24:57;12.87;;;6.23;;
16352;SDS011;8286;51.274;9.542;2022-11-20T03:27:24;12.83;;;6.80;;
16352;SDS011;8286;51.274;9.542;2022-11-20T03:29:50;10.83;;;5.77;;
16352;SDS011;8286;51.274;9.542;2022-11-20T03:32:17;9.80;;;5.47;;
16352;SDS011;8286;51.274;9.542;2022-11-20T03:34:45;11.43;;;6.03;;
16352;SDS011;8286;51.274;9.542;2022-11-20T03:37:11;12.13;;;6.13;;
16352;SDS011;8286;51.274;9.542;2022-11-20T03:39:38;10.27;;;5.43;;
16352;SDS011;8286;51.274;9.542;2022-11-20T03:42:05;10.03;;;5.07;;
16352;SDS011;8286;51.274;9.542;2022-11-20T03:44:51;10.90;;;5.77;;
16352;SDS011;8286;51.274;9.542;2022-11-20T03:47:18;9.27;;;4.70;;
16352;SDS011;8286;51.274;9.542;2022-11-20T03:49:46;7.87;;;5.63;;
16352;SDS011;8286;51.274;9.542;2022-11-20T03:52:13;8.60;;;5.20;;
16352;SDS011;8286;51.274;9.542;2022-11-20T03:54:39;12.20;;;6.47;;
16352;SDS011;8286;51.274;9.542;2022-11-20T03:57:06;9.50;;;5.67;;
16352;SDS011;8286;51.274;9.542;2022-11-20T03:59:32;12.70;;;6.30;;
16352;SDS011;8286;51.274;9.542;2022-11-20T04:01:59;9.90;;;5.50;;
16352;SDS011;8286;51.274;9.542;2022-11-20T04:04:26;12.70;;;5.77;;
16352;SDS011;8286;51.274;9.542;2022-11-20T04:06:53;11.20;;;6.40;;
16352;SDS011;8286;51.274;9.542;2022-11-20T04:09:20;12.03;;;7.00;;
16352;SDS011;8286;51.274;9.542;2022-11-20T04:11:47;11.23;;;6.20;;
16352;SDS011;8286;51.274;9.542;2022-11-20T04:14:14;15.37;;;7.23;;
16352;SDS011;8286;51.274;9.542;2022-11-20T04:16:42;15.93;;;6.70;;
16352;SDS011;8286;51.274;9.542;2022-11-20T04:19:09;12.57;;;6.73;;
16352;SDS011;8286;51.274;9.542;2022-11-20T04:21:38;9.47;;;6.20;;
16352;SDS011;8286;51.274;9.542;2022-11-20T04:24:06;18.47;;;6.80;;
16352;SDS011;8286;51.274;9.542;2022-11-20T04:26:33;11.03;;;5.73;;
16352;SDS011;8286;51.274;9.542;2022-11-20T04:29:00;11.50;;;6.20;;
16352;SDS011;8286;51.274;9.542;2022-11-20T04:31:29;14.23;;;6.10;;
16352;SDS011;8286;51.274;9.542;2022-11-20T04:33:59;15.43;;;6.20;;
16352;SDS011;8286;51.274;9.542;2022-11-20T04:36:26;14.43;;;7.00;;
16352;SDS011;8286;51.274;9.542;2022-11-20T04:38:54;13.03;;;6.43;;
16352;SDS011;8286;51.274;9.542;2022-11-20T04:41:23;11.13;;;6.20;;
16352;SDS011;8286;51.274;9.542;2022-11-20T04:43:51;12.10;;;6.30;;
16352;SDS011;8286;51.274;9.542;2022-11-20T04:46:19;10.07;;;6.50;;
16352;SDS011;8286;51.274;9.542;2022-11-20T04:48:46;12.00;;;5.87;;
16352;SDS011;8286;51.274;9.542;2022-11-20T04:51:13;10.63;;;6.13;;
16352;SDS011;8286;51.274;9.542;2022-11-20T04:53:40;12.83;;;6.37;;
16352;SDS011;8286;51.274;9.542;2022-11-20T04:56:07;13.77;;;7.13;;
16352;SDS011;8286;51.274;9.542;2022-11-20T04:58:36;13.23;;;7.17;;
16352;SDS011;8286;51.274;9.542;2022-11-20T05:01:04;11.00;;;6.53;;
16352;SDS011;8286;51.274;9.542;2022-11-20T05:03:32;14.57;;;7.23;;
16352;SDS011;8286;51.274;9.542;2022-11-20T05:05:59;14.77;;;7.10;;
16352;SDS011;8286;51.274;9.542;2022-11-20T05:08:26;12.73;;;6.87;;
16352;SDS011;8286;51.274;9.542;2022-11-20T05:10:53;12.90;;;7.10;;
16352;SDS011;8286;51.274;9.542;2022-11-20T05:13:19;14.83;;;6.63;;
16352;SDS011;8286;51.274;9.542;2022-11-20T05:15:47;11.70;;;6.53;;
16352;SDS011;8286;51.274;9.542;2022-11-20T05:18:14;13.43;;;6.67;;
16352;SDS011;8286;51.274;9.542;2022-11-20T05:20:40;15.37;;;6.70;;
16352;SDS011;8286;51.274;9.542;2022-11-20T05:23:07;16.90;;;6.80;;
16352;SDS011;8286;51.274;9.542;2022-11-20T05:25:34;14.57;;;6.73;;
16352;SDS011;8286;51.274;9.542;2022-11-20T05:28:00;14.57;;;7.30;;
16352;SDS011;8286;51.274;9.542;2022-11-20T05:30:27;16.87;;;7.93;;
16352;SDS011;8286;51.274;9.542;2022-11-20T05:32:55;16.53;;;7.13;;
16352;SDS011;8286;51.274;9.542;2022-11-20T05:35:21;15.30;;;6.93;;
16352;SDS011;8286;51.274;9.542;2022-11-20T05:37:48;16.87;;;8.03;;
16352;SDS011;8286;51.274;9.542;2022-11-20T05:40:15;14.13;;;7.73;;
16352;SDS011;8286;51.274;9.542;2022-11-20T05:42:41;16.30;;;8.13;;
16352;SDS011;8286;51.274;9.542;2022-11-20T05:45:09;16.43;;;8.30;;
16352;SDS011;8286;51.274;9.542;2022-11-20T05:47:35;22.97;;;7.63;;
16352;SDS011;8286;51.274;9.542;2022-11-20T05:50:04;14.93;;;8.13;;
16352;SDS011;8286;51.274;9.542;2022-11-20T05:52:31;16.07;;;7.47;;
16352;SDS011;8286;51.274;9.542;2022-11-20T05:54:57;18.37;;;8.10;;
16352;SDS011;8286;51.274;9.542;2022-11-20T05:57:24;16.80;;;7.50;;
16352;SDS011;8286;51.274;9.542;2022-11-20T05:59:51;13.50;;;7.10;;
16352;SDS011;8286;51.274;9.542;2022-11-20T06:02:17;17.13;;;7.57;;
16352;SDS011;8286;51.274;9.542;2022-11-20T06:04:44;16.67;;;7.83;;
16352;SDS011;8286;51.274;9.542;2022-11-20T06:07:12;16.00;;;7.70;;
16352;SDS011;8286;51.274;9.542;2022-11-20T06:09:39;16.00;;;7.13;;
16352;SDS011;8286;51.274;9.542;2022-11-20T06:12:05;17.90;;;8.00;;
16352;SDS011;8286;51.274;9.542;2022-11-20T06:14:32;21.80;;;8.40;;
16352;SDS011;8286;51.274;9.542;2022-11-20T06:16:59;17.27;;;7.43;;
16352;SDS011;8286;51.274;9.542;2022-11-20T06:19:26;16.53;;;8.23;;
16352;SDS011;8286;51.274;9.542;2022-11-20T06:21:52;13.20;;;7.37;;
16352;SDS011;8286;51.274;9.542;2022-11-20T06:24:20;13.33;;;7.73;;
16352;SDS011;8286;51.274;9.542;2022-11-20T06:26:47;12.77;;;7.07;;
16352;SDS011;8286;51.274;9.542;2022-11-20T06:29:14;13.80;;;7.57;;
16352;SDS011;8286;51.274;9.542;2022-11-20T06:31:41;16.77;;;8.67;;
16352;SDS011;8286;51.274;9.542;2022-11-20T06:34:07;17.80;;;7.37;;
16352;SDS011;8286;51.274;9.542;2022-11-20T06:36:34;13.70;;;7.13;;
16352;SDS011;8286;51.274;9.542;2022-11-20T06:39:01;17.63;;;7.70;;
16352;SDS011;8286;51.274;9.542;2022-11-20T06:41:29;13.83;;;6.70;;
16352;SDS011;8286;51.274;9.542;2022-11-20T06:43:56;15.80;;;8.03;;
16352;SDS011;8286;51.274;9.542;2022-11-20T06:46:23;17.67;;;8.30;;
16352;SDS011;8286;51.274;9.542;2022-11-20T06:48:49;15.83;;;7.57;;
16352;SDS011;8286;51.274;9.542;2022-11-20T06:51:16;14.23;;;7.23;;
16352;SDS011;8286;51.274;9.542;2022-11-20T06:53:43;13.53;;;8.37;;
16352;SDS011;8286;51.274;9.542;2022-11-20T06:56:09;17.73;;;8.57;;
16352;SDS011;8286;51.274;9.542;2022-11-20T06:58:37;14.67;;;8.53;;
16352;SDS011;8286;51.274;9.542;2022-11-20T07:01:05;18.70;;;8.03;;
16352;SDS011;8286;51.274;9.542;2022-11-20T07:03:32;20.50;;;8.80;;
16352;SDS011;8286;51.274;9.542;2022-11-20T07:05:59;21.53;;;8.50;;
16352;SDS011;8286;51.274;9.542;2022-11-20T07:08:26;19.63;;;8.53;;
16352;SDS011;8286;51.274;9.542;2022-11-20T07:10:56;16.17;;;8.00;;
16352;SDS011;8286;51.274;9.542;2022-11-20T07:13:23;13.10;;;8.20;;
16352;SDS011;8286;51.274;9.542;2022-11-20T07:15:51;18.87;;;8.30;;
16352;SDS011;8286;51.274;9.542;2022-11-20T07:18:18;15.83;;;7.73;;
16352;SDS011;8286;51.274;9.542;2022-11-20T07:20:45;20.77;;;9.00;;
16352;SDS011;8286;51.274;9.542;2022-11-20T07:23:11;17.30;;;8.67;;
16352;SDS011;8286;51.274;9.542;2022-11-20T07:25:38;17.27;;;8.63;;
16352;SDS011;8286;51.274;9.542;2022-11-20T07:28:05;17.73;;;8.30;;
16352;SDS011;8286;51.274;9.542;2022-11-20T07:30:31;15.80;;;7.93;;
16352;SDS011;8286;51.274;9.542;2022-11-20T07:32:59;14.43;;;7.07;;
16352;SDS011;8286;51.274;9.542;2022-11-20T07:35:26;14.33;;;6.80;;
16352;SDS011;8286;51.274;9.542;2022-11-20T07:37:52;13.97;;;7.33;;
16352;SDS011;8286;51.274;9.542;2022-11-20T07:40:19;14.23;;;7.83;;
16352;SDS011;8286;51.274;9.542;2022-11-20T07:42:49;14.63;;;7.17;;
16352;SDS011;8286;51.274;9.542;2022-11-20T07:45:16;13.20;;;7.63;;
16352;SDS011;8286;51.274;9.542;2022-11-20T07:47:42;12.53;;;7.67;;
16352;SDS011;8286;51.274;9.542;2022-11-20T07:50:11;17.93;;;8.20;;
16352;SDS011;8286;51.274;9.542;2022-11-20T07:52:38;12.13;;;6.87;;
16352;SDS011;8286;51.274;9.542;2022-11-20T07:55:05;18.07;;;8.13;;
16352;SDS011;8286;51.274;9.542;2022-11-20T07:57:32;16.57;;;8.13;;
16352;SDS011;8286;51.274;9.542;2022-11-20T07:59:59;19.70;;;9.07;;
16352;SDS011;8286;51.274;9.542;2022-11-20T08:02:25;24.60;;;9.93;;
16352;SDS011;8286;51.274;9.542;2022-11-20T08:04:52;26.00;;;9.23;;
16352;SDS011;8286;51.274;9.542;2022-11-20T08:07:20;19.23;;;8.07;;
16352;SDS011;8286;51.274;9.542;2022-11-20T08:09:46;22.23;;;10.30;;
16352;SDS011;8286;51.274;9.542;2022-11-20T08:12:16;18.70;;;8.27;;
16352;SDS011;8286;51.274;9.542;2022-11-20T08:15:01;24.40;;;9.13;;
16352;SDS011;8286;51.274;9.542;2022-11-20T08:17:28;20.03;;;9.60;;
16352;SDS011;8286;51.274;9.542;2022-11-20T08:19:55;23.33;;;9.30;;
16352;SDS011;8286;51.274;9.542;2022-11-20T08:22:23;20.80;;;8.80;;
16352;SDS011;8286;51.274;9.542;2022-11-20T08:24:49;24.50;;;9.53;;
16352;SDS011;8286;51.274;9.542;2022-11-20T08:27:16;22.63;;;9.07;;
16352;SDS011;8286;51.274;9.542;2022-11-20T08:29:43;23.17;;;10.43;;
16352;SDS011;8286;51.274;9.542;2022-11-20T08:32:09;21.27;;;8.70;;
16352;SDS011;8286;51.274;9.542;2022-11-20T08:34:36;19.93;;;10.13;;
16352;SDS011;8286;51.274;9.542;2022-11-20T08:37:02;25.23;;;8.17;;
16352;SDS011;8286;51.274;9.542;2022-11-20T08:39:31;19.30;;;8.90;;
16352;SDS011;8286;51.274;9.542;2022-11-20T08:41:57;21.60;;;9.20;;
16352;SDS011;8286;51.274;9.542;2022-11-20T08:44:24;21.83;;;8.27;;
16352;SDS011;8286;51.274;9.542;2022-11-20T08:46:50;17.43;;;8.47;;
16352;SDS011;8286;51.274;9.542;2022-11-20T08:49:17;18.90;;;7.60;;
16352;SDS011;8286;51.274;9.542;2022-11-20T08:51:44;15.47;;;8.20;;
16352;SDS011;8286;51.274;9.542;2022-11-20T08:54:12;23.97;;;8.40;;
16352;SDS011;8286;51.274;9.542;2022-11-20T08:56:41;18.90;;;7.80;;
16352;SDS011;8286;51.274;9.542;2022-11-20T08:59:08;15.37;;;6.97;;
16352;SDS011;8286;51.274;9.542;2022-11-20T09:01:34;22.53;;;9.03;;
16352;SDS011;8286;51.274;9.542;2022-11-20T09:04:01;21.57;;;8.30;;
16352;SDS011;8286;51.274;9.542;2022-11-20T09:06:29;24.00;;;9.83;;
16352;SDS011;8286;51.274;9.542;2022-11-20T09:08:56;18.03;;;8.47;;
16352;SDS011;8286;51.274;9.542;2022-11-20T09:11:23;19.60;;;8.77;;
16352;SDS011;8286;51.274;9.542;2022-11-20T09:13:51;18.47;;;8.83;;
16352;SDS011;8286;51.274;9.542;2022-11-20T09:16:17;17.97;;;8.63;;
16352;SDS011;8286;51.274;9.542;2022-11-20T09:18:45;20.57;;;8.63;;
16352;SDS011;8286;51.274;9.542;2022-11-20T09:21:12;18.67;;;9.43;;
16352;SDS011;8286;51.274;9.542;2022-11-20T09:23:39;24.07;;;10.00;;
16352;SDS011;8286;51.274;9.542;2022-11-20T09:26:07;19.33;;;8.73;;
16352;SDS011;8286;51.274;9.542;2022-11-20T09:28:35;19.20;;;9.00;;
16352;SDS011;8286;51.274;9.542;2022-11-20T09:31:06;23.63;;;9.90;;
16352;SDS011;8286;51.274;9.542;2022-11-20T09:33:32;24.70;;;9.93;;
16352;SDS011;8286;51.274;9.542;2022-11-20T09:35:59;22.27;;;9.33;;
16352;SDS011;8286;51.274;9.542;2022-11-20T09:38:26;22.57;;;9.73;;
16352;SDS011;8286;51.274;9.542;2022-11-20T09:40:54;27.40;;;9.20;;
16352;SDS011;8286;51.274;9.542;2022-11-20T09:43:25;20.90;;;9.33;;
16352;SDS011;8286;51.274;9.542;2022-11-20T09:45:58;29.47;;;10.47;;
16352;SDS011;8286;51.274;9.542;2022-11-20T09:48:39;24.03;;;9.90;;
16352;SDS011;8286;51.274;9.542;2022-11-20T09:51:13;23.67;;;9.17;;
16352;SDS011;8286;51.274;9.542;2022-11-20T09:53:51;20.97;;;9.13;;
16352;SDS011;8286;51.274;9.542;2022-11-20T09:56:27;22.17;;;9.03;;
16352;SDS011;8286;51.274;9.542;2022-11-20T09:58:54;23.43;;;9.70;;
16352;SDS011;8286;51.274;9.542;2022-11-20T10:01:26;25.77;;;9.27;;
16352;SDS011;8286;51.274;9.542;2022-11-20T10:03:56;22.33;;;10.13;;
16352;SDS011;8286;51.274;9.542;2022-11-20T10:06:28;19.50;;;8.83;;
16352;SDS011;8286;51.274;9.542;2022-11-20T10:08:59;21.13;;;10.00;;
16352;SDS011;8286;51.274;9.542;2022-11-20T10:11:32;24.23;;;9.10;;
16352;SDS011;8286;51.274;9.542;2022-11-20T10:14:07;23.73;;;9.67;;
16352;SDS011;8286;51.274;9.542;2022-11-20T10:16:42;22.37;;;10.03;;
16352;SDS011;8286;51.274;9.542;2022-11-20T10:19:22;27.97;;;11.43;;
16352;SDS011;8286;51.274;9.542;2022-11-20T10:21:58;21.33;;;10.50;;
16352;SDS011;8286;51.274;9.542;2022-11-20T10:24:36;28.07;;;10.57;;
16352;SDS011;8286;51.274;9.542;2022-11-20T10:27:12;23.30;;;9.97;;
16352;SDS011;8286;51.274;9.542;2022-11-20T10:30:00;21.27;;;9.30;;
16352;SDS011;8286;51.274;9.542;2022-11-20T10:32:30;25.53;;;10.73;;
16352;SDS011;8286;51.274;9.542;2022-11-20T10:35:03;26.20;;;10.83;;
16352;SDS011;8286;51.274;9.542;2022-11-20T10:37:33;23.80;;;10.73;;
16352;SDS011;8286;51.274;9.542;2022-11-20T10:40:05;23.73;;;10.67;;
16352;SDS011;8286;51.274;9.542;2022-11-20T10:42:45;26.17;;;9.73;;
16352;SDS011;8286;51.274;9.542;2022-11-20T10:45:15;29.07;;;10.83;;
16352;SDS011;8286;51.274;9.542;2022-11-20T10:47:45;25.53;;;10.70;;
16352;SDS011;8286;51.274;9.542;2022-11-20T10:50:14;22.93;;;10.73;;
16352;SDS011;8286;51.274;9.542;2022-11-20T10:52:48;27.90;;;11.37;;
16352;SDS011;8286;51.274;9.542;2022-11-20T10:55:22;27.33;;;11.63;;
16352;SDS011;8286;51.274;9.542;2022-11-20T10:57:54;31.03;;;11.87;;
16352;SDS011;8286;51.274;9.542;2022-11-20T11:00:25;31.30;;;12.17;;
16352;SDS011;8286;51.274;9.542;2022-11-20T11:02:52;27.27;;;10.47;;
16352;SDS011;8286;51.274;9.542;2022-11-20T11:05:27;25.57;;;10.90;;
16352;SDS011;8286;51.274;9.542;2022-11-20T11:07:59;31.40;;;10.53;;
16352;SDS011;8286;51.274;9.542;2022-11-20T11:10:28;21.27;;;9.70;;
16352;SDS011;8286;51.274;9.542;2022-11-20T11:13:02;17.03;;;8.83;;
16352;SDS011;8286;51.274;9.542;2022-11-20T11:15:29;24.53;;;10.00;;
16352;SDS011;8286;51.274;9.542;2022-11-20T11:18:02;24.13;;;9.93;;
16352;SDS011;8286;51.274;9.542;2022-11-20T11:20:30;18.87;;;8.27;;
16352;SDS011;8286;51.274;9.542;2022-11-20T11:22:58;23.03;;;10.13;;
16352;SDS011;8286;51.274;9.542;2022-11-20T11:25:27;29.40;;;10.97;;
16352;SDS011;8286;51.274;9.542;2022-11-20T11:27:56;28.30;;;11.73;;
16352;SDS011;8286;51.274;9.542;2022-11-20T11:30:24;20.37;;;9.70;;
16352;SDS011;8286;51.274;9.542;2022-11-20T11:33:02;23.10;;;10.77;;
16352;SDS011;8286;51.274;9.542;2022-11-20T11:35:31;26.73;;;12.27;;
16352;SDS011;8286;51.274;9.542;2022-11-20T11:38:02;26.27;;;11.00;;
16352;SDS011;8286;51.274;9.542;2022-11-20T11:40:31;25.27;;;11.57;;
16352;SDS011;8286;51.274;9.542;2022-11-20T11:42:59;28.97;;;12.73;;
16352;SDS011;8286;51.274;9.542;2022-11-20T11:45:27;29.80;;;12.93;;
16352;SDS011;8286;51.274;9.542;2022-11-20T11:47:53;23.87;;;10.60;;
16352;SDS011;8286;51.274;9.542;2022-11-20T11:50:23;29.60;;;13.30;;
16352;SDS011;8286;51.274;9.542;2022-11-20T11:52:53;32.17;;;13.60;;
16352;SDS011;8286;51.274;9.542;2022-11-20T11:55:35;26.63;;;14.03;;
16352;SDS011;8286;51.274;9.542;2022-11-20T11:58:07;27.53;;;13.33;;
16352;SDS011;8286;51.274;9.542;2022-11-20T12:00:39;35.50;;;14.97;;
16352;SDS011;8286;51.274;9.542;2022-11-20T12:03:09;24.83;;;12.43;;
16352;SDS011;8286;51.274;9.542;2022-11-20T12:05:42;24.13;;;11.17;;
16352;SDS011;8286;51.274;9.542;2022-11-20T12:08:14;21.13;;;10.10;;
16352;SDS011;8286;51.274;9.542;2022-11-20T12:10:44;20.30;;;10.00;;
16352;SDS011;8286;51.274;9.542;2022-11-20T12:13:15;31.63;;;13.10;;
16352;SDS011;8286;51.274;9.542;2022-11-20T12:15:47;24.63;;;11.40;;
16352;SDS011;8286;51.274;9.542;2022-11-20T12:18:14;23.70;;;11.33;;
16352;SDS011;8286;51.274;9.542;2022-11-20T12:20:43;28.63;;;12.27;;
16352;SDS011;8286;51.274;9.542;2022-11-20T12:23:16;23.93;;;11.57;;
16352;SDS011;8286;51.274;9.542;2022-11-20T12:25:47;23.83;;;10.97;;
16352;SDS011;8286;51.274;9.542;2022-11-20T12:28:27;25.90;;;11.83;;
16352;SDS011;8286;51.274;9.542;2022-11-20T12:31:09;27.70;;;11.67;;
16352;SDS011;8286;51.274;9.542;2022-11-20T12:33:53;21.80;;;10.93;;
16352;SDS011;8286;51.274;9.542;2022-11-20T12:36:31;25.00;;;11.63;;
16352;SDS011;8286;51.274;9.542;2022-11-20T12:39:17;30.27;;;12.23;;
16352;SDS011;8286;51.274;9.542;2022-11-20T12:41:53;27.50;;;11.70;;
16352;SDS011;8286;51.274;9.542;2022-11-20T12:45:06;26.77;;;11.90;;
16352;SDS011;8286;51.274;9.542;2022-11-20T12:50:29;25.43;;;12.13;;
16352;SDS011;8286;51.274;9.542;2022-11-20T12:53:03;27.30;;;11.90;;
16352;SDS011;8286;51.274;9.542;2022-11-20T12:55:38;24.97;;;12.07;;
16352;SDS011;8286;51.274;9.542;2022-11-20T12:58:10;26.13;;;12.87;;
16352;SDS011;8286;51.274;9.542;2022-11-20T13:00:43;25.43;;;12.90;;
16352;SDS011;8286;51.274;9.542;2022-11-20T13:03:22;24.53;;;11.03;;
16352;SDS011;8286;51.274;9.542;2022-11-20T13:05:59;25.73;;;12.50;;
16352;SDS011;8286;51.274;9.542;2022-11-20T13:08:33;23.97;;;11.70;;
16352;SDS011;8286;51.274;9.542;2022-11-20T13:11:03;23.97;;;12.07;;
16352;SDS011;8286;51.274;9.542;2022-11-20T13:13:36;22.97;;;11.67;;
16352;SDS011;8286;51.274;9.542;2022-11-20T13:16:10;25.77;;;13.47;;
16352;SDS011;8286;51.274;9.542;2022-11-20T13:18:39;25.87;;;12.50;;
16352;SDS011;8286;51.274;9.542;2022-11-20T13:21:14;29.77;;;13.00;;
16352;SDS011;8286;51.274;9.542;2022-11-20T13:23:41;27.80;;;13.67;;
16352;SDS011;8286;51.274;9.542;2022-11-20T13:26:15;27.63;;;13.20;;
16352;SDS011;8286;51.274;9.542;2022-11-20T13:28:44;29.40;;;13.83;;
16352;SDS011;8286;51.274;9.542;2022-11-20T13:31:23;26.53;;;13.47;;
16352;SDS011;8286;51.274;9.542;2022-11-20T13:33:54;29.43;;;13.13;;
16352;SDS011;8286;51.274;9.542;2022-11-20T13:36:22;25.00;;;12.67;;
16352;SDS011;8286;51.274;9.542;2022-11-20T13:38:51;25.30;;;12.17;;
16352;SDS011;8286;51.274;9.542;2022-11-20T13:41:24;27.60;;;12.53;;
16352;SDS011;8286;51.274;9.542;2022-11-20T13:43:58;28.20;;;14.40;;
16352;SDS011;8286;51.274;9.542;2022-11-20T13:46:35;33.67;;;14.73;;
16352;SDS011;8286;51.274;9.542;2022-11-20T13:49:06;25.80;;;12.40;;
16352;SDS011;8286;51.274;9.542;2022-11-20T13:51:34;26.87;;;13.27;;
16352;SDS011;8286;51.274;9.542;2022-11-20T13:54:14;31.83;;;13.53;;
16352;SDS011;8286;51.274;9.542;2022-11-20T13:56:50;28.87;;;12.03;;
16352;SDS011;8286;51.274;9.542;2022-11-20T13:59:31;26.90;;;13.23;;
16352;SDS011;8286;51.274;9.542;2022-11-20T14:02:09;24.70;;;11.50;;
16352;SDS011;8286;51.274;9.542;2022-11-20T14:04:38;32.70;;;13.67;;
16352;SDS011;8286;51.274;9.542;2022-11-20T14:07:08;33.63;;;14.90;;
16352;SDS011;8286;51.274;9.542;2022-11-20T14:09:35;29.27;;;12.37;;
16352;SDS011;8286;51.274;9.542;2022-11-20T14:12:12;31.97;;;16.67;;
16352;SDS011;8286;51.274;9.542;2022-11-20T14:14:47;27.57;;;12.57;;
16352;SDS011;8286;51.274;9.542;2022-11-20T14:17:17;30.57;;;15.20;;
16352;SDS011;8286;51.274;9.542;2022-11-20T14:19:44;23.40;;;13.03;;
16352;SDS011;8286;51.274;9.542;2022-11-20T14:22:24;26.80;;;13.53;;
16352;SDS011;8286;51.274;9.542;2022-11-20T14:25:00;31.03;;;14.30;;
16352;SDS011;8286;51.274;9.542;2022-11-20T14:27:32;33.17;;;15.33;;
16352;SDS011;8286;51.274;9.542;2022-11-20T14:30:00;22.70;;;13.57;;
16352;SDS011;8286;51.274;9.542;2022-11-20T14:32:28;28.87;;;14.87;;
16352;SDS011;8286;51.274;9.542;2022-11-20T14:34:55;34.57;;;15.93;;
16352;SDS011;8286;51.274;9.542;2022-11-20T14:37:25;36.57;;;15.77;;
16352;SDS011;8286;51.274;9.542;2022-11-20T14:39:54;23.63;;;11.43;;
16352;SDS011;8286;51.274;9.542;2022-11-20T14:42:24;32.27;;;12.93;;
16352;SDS011;8286;51.274;9.542;2022-11-20T14:44:54;24.87;;;12.20;;
16352;SDS011;8286;51.274;9.542;2022-11-20T14:47:23;24.17;;;12.33;;
16352;SDS011;8286;51.274;9.542;2022-11-20T14:49:51;22.77;;;11.83;;
16352;SDS011;8286;51.274;9.542;2022-11-20T14:52:19;26.97;;;13.73;;
16352;SDS011;8286;51.274;9.542;2022-11-20T14:54:48;30.67;;;14.83;;
16352;SDS011;8286;51.274;9.542;2022-11-20T14:57:23;24.67;;;11.80;;